Kobe, Japan
Current Conditions -  °F | °C
As of 9:00 PM on Monday 22 Dec 2014 (Local Time) from RJBE Reporting Station
Broken Clouds Broken Clouds  
Wind Chill: 31°   Ceiling: 6000
Heat Index: 41°   Visibility: 6mi
Dew Point: 28°   Wind: 23mph
Humidity: 61%   Direction: 270°W
Pressure: 30.15"   Gusts: NA
Location:  34.68°N, 135.17°E
Report Text: RJBE 221200Z 27020KT 9999 FEW020 BKN060 05/M02 Q1021
Loading
Personal Weather Stations






























Interactive Weather Map New forecast layout! Learn more

10-Day Weather Forecast

Advertisements
Track Severe Weather on mobile